Spirit Of New York — WCW9332 — position and weather

sailwx.info

Track history (hours):
 
Tides and Currents Weather Stations Pressure Air Temp Water Temp Dewpoint Dewpoint Depression Visibility Wind Speed Wind Dir Waves Ship Positions

Spirit Of New York

Owner: SPIRIT CRUISES LLC, NEW YORK, NY. More information available from US FCC via Universal Licensing System and Coast Guard Vessel Documentation Center.

Last reported at 2017-Jan-11 14:17 UTC. Time now 2017-Jan-24 23:31 UTC.
Position N 40°57' W 073°54'.
Warning: this ship's position is 13 days out of date.

Length 62 m.

Type: Passenger vessel. MMSI: 338897000.

Date/timePositionNaut miles runAvg speedWind from/ knotsBaromVisibWave heightAir tempDewpointWater temp
2017-Jan-11 14:17N 40°57' W 073°54'810.3
2017-Jan-11 13:33N 40°50' W 073°57'6 5.9
2017-Jan-11 12:33N 40°45' W 074°01'0 0.0
2017-Jan-11 03:25N 40°45' W 074°01'4 4.7
2017-Jan-11 02:34N 40°41' W 074°03'3 2.9
2017-Jan-11 01:34N 40°44' W 074°01'1 1.1
2017-Jan-11 00:34N 40°45' W 074°01'  
2017-Jan-07 02:33N 40°45' W 074°01'4 4.0
2017-Jan-07 01:34N 40°41' W 074°03'2 2.1
2017-Jan-07 00:34N 40°43' W 074°01'2 2.0
2017-Jan-06 23:34N 40°45' W 074°01'  
2017-Jan-04 02:24N 40°45' W 074°01'4 4.6
2017-Jan-04 01:33N 40°41' W 074°02'2 1.6
2017-Jan-04 00:34N 40°43' W 074°01'2 2.3
2017-Jan-03 23:33N 40°45' W 074°01'0 0.0
2017-Jan-02 02:23N 40°45' W 074°01'4 4.3
2017-Jan-02 01:34N 40°42' W 074°02'4 3.5
2017-Jan-02 00:34N 40°45' W 074°01'0 0.2
2017-Jan-01 23:34N 40°45' W 074°01'0 0.0
2017-Jan-01 20:16N 40°45' W 074°01'1 1.6
2017-Jan-01 19:33N 40°44' W 074°01'2 2.2
2017-Jan-01 18:34N 40°42' W 074°00'3 3.1
2017-Jan-01 17:33N 40°45' W 074°01'  
Track history (hours):
 
Tides and Currents Weather Stations Pressure Air Temp Water Temp Dewpoint Dewpoint Depression Visibility Wind Speed Wind Dir Waves Ship Positions

Spirit Of New York

Owner: SPIRIT CRUISES LLC, NEW YORK, NY. More information available from US FCC via Universal Licensing System and Coast Guard Vessel Documentation Center.

Last reported at 2017-Jan-11 14:17 UTC. Time now 2017-Jan-24 23:31 UTC.
Position N 40°57' W 073°54'.
Warning: this ship's position is 13 days out of date.

Length 62 m.

Type: Passenger vessel. MMSI: 338897000.

Date/timePositionNaut miles runAvg speedWind from/ knotsBaromVisibWave heightAir tempDewpointWater temp
2017-Jan-11 14:17N 40°57' W 073°54'810.3
2017-Jan-11 13:33N 40°50' W 073°57'6 5.9
2017-Jan-11 12:33N 40°45' W 074°01'0 0.0
2017-Jan-11 03:25N 40°45' W 074°01'4 4.7
2017-Jan-11 02:34N 40°41' W 074°03'3 2.9
2017-Jan-11 01:34N 40°44' W 074°01'1 1.1
2017-Jan-11 00:34N 40°45' W 074°01'  
2017-Jan-07 02:33N 40°45' W 074°01'4 4.0
2017-Jan-07 01:34N 40°41' W 074°03'2 2.1
2017-Jan-07 00:34N 40°43' W 074°01'2 2.0
2017-Jan-06 23:34N 40°45' W 074°01'  
2017-Jan-04 02:24N 40°45' W 074°01'4 4.6
2017-Jan-04 01:33N 40°41' W 074°02'2 1.6
2017-Jan-04 00:34N 40°43' W 074°01'2 2.3
2017-Jan-03 23:33N 40°45' W 074°01'0 0.0
2017-Jan-02 02:23N 40°45' W 074°01'4 4.3
2017-Jan-02 01:34N 40°42' W 074°02'4 3.5
2017-Jan-02 00:34N 40°45' W 074°01'0 0.2
2017-Jan-01 23:34N 40°45' W 074°01'0 0.0
2017-Jan-01 20:16N 40°45' W 074°01'1 1.6
2017-Jan-01 19:33N 40°44' W 074°01'2 2.2
2017-Jan-01 18:34N 40°42' W 074°00'3 3.1
2017-Jan-01 17:33N 40°45' W 074°01'  

Dump ship's entire track history